Latest Coastal Weather Observations for Bedout Island

IDW60701

Issued at 7:13 pm WST Tuesday 24 January 2017 (issued every 10 minutes, with the page automatically refreshed every 10 minutes)

About coastal observations | Map of coastal stations | Coastal observations for WA | Marine services | Other Formats
Station Details ID: 004100 Name: BEDOUT ISLAND Lat: -19.59 Lon: 119.10 Height: 8.6 m
Data from the previous 72 hours. | See also: Recent months at Bedout Island
Date/Time
WST
Temp
°C
Wind Pressure Rain since
9am
mm
Weather Cloud Vis
km
Sea
Height
m
Swell
Dir  Spd
kts
Gust
kts
hPa Trend Height
m
Period
s
Dir
24/07:00pm 28.0 W 18 22 1007.1 - - - - - - - - -
24/06:30pm 28.3 W 17 19 1006.8 - - - - - - - - -
24/06:00pm 29.1 W 16 19 1006.5 - - - - - - - - -
24/05:30pm 29.5 W 15 17 1006.5 - - - - - - - - -
24/04:30pm 30.9 W 12 14 1006.5 - - - - - - - - -
24/04:00pm 30.5 W 10 13 1006.8 - - - - - - - - -
24/03:30pm 31.9 W 11 13 1006.7 - - - - - - - - -
24/03:00pm 31.2 W 18 21 1006.3 - - - - - - - - -
24/02:30pm 31.1 W 19 22 1005.9 - - - - - - - - -
24/01:30pm 31.7 W 16 17 1006.8 - - - - - - - - -
24/01:00pm 31.6 W 11 14 1007.4 - - - - - - - - -
24/12:30pm 31.1 W 11 13 1007.7 - - - - - - - - -
24/12:00pm 32.0 W 7 10 1008.1 - - - - - - - - -
24/11:00am 30.9 W 6 7 1009.5 - - - - - - - - -
24/10:30am 30.6 W 6 8 1010.1 - - - - - - - - -
24/10:00am 30.7 W 7 11 1010.5 - - - - - - - - -
24/09:30am 29.9 W 9 12 1010.6 - - - - - - - - -
24/09:00am 29.4 W 9 12 1010.7 - - - - - - - - -
24/08:00am 28.3 W 12 14 1010.2 - - - - - - - - -
24/07:30am 28.0 W 17 20 1009.1 - - - - - - - - -
24/07:00am 27.7 W 18 21 1008.7 - - - - - - - - -
24/06:30am 27.4 W 20 24 1008.0 - - - - - - - - -
24/06:00am 27.5 W 21 25 1007.3 - - - - - - - - -
24/05:30am 27.4 W 20 23 1006.9 - - - - - - - - -
24/04:30am 27.5 W 20 23 1006.7 - - - - - - - - -
24/03:00am 27.4 W 19 22 1006.8 - - - - - - - - -
24/02:30am 27.4 W 20 23 1006.8 - - - - - - - - -
24/02:00am 27.5 WNW 19 25 1006.9 - - - - - - - - -
24/01:00am 27.5 WNW 18 21 1007.3 - - - - - - - - -
24/12:30am 27.5 WNW 19 22 1007.5 - - - - - - - - -
24/12:00am 27.7 WNW 19 22 1007.7 - - - - - - - - -
 
Date/Time
WST
Temp
°C
Wind Pressure Rain since
9am
mm
Weather Cloud Vis
km
Sea
Height
m
Swell
Dir  Spd
kts
Gust
kts
hPa Trend Height
m
Period
s
Dir
23/11:30pm 27.7 WNW 18 20 1008.2 - - - - - - - - -
23/11:00pm 27.7 WNW 17 21 1008.5 - - - - - - - - -
23/10:30pm 27.6 WNW 19 21 1008.3 - - - - - - - - -
23/10:00pm 27.6 WNW 19 22 1008.1 - - - - - - - - -
23/09:00pm 27.6 WNW 19 23 1007.0 - - - - - - - - -
23/08:30pm 27.7 WNW 19 21 1007.0 - - - - - - - - -
23/07:30pm 27.8 WNW 19 21 1006.4 - - - - - - - - -
23/07:00pm 27.7 WNW 19 22 1006.1 - - - - - - - - -
23/06:30pm 28.0 WNW 19 21 1005.8 - - - - - - - - -
23/06:00pm 28.6 WNW 19 21 1005.3 - - - - - - - - -
23/05:30pm 29.1 WNW 18 21 1005.4 - - - - - - - - -
23/05:00pm 29.5 WNW 18 21 1005.3 - - - - - - - - -
23/04:30pm 29.8 WNW 18 21 1005.0 - - - - - - - - -
23/03:30pm 30.4 W 16 20 1005.4 - - - - - - - - -
23/03:00pm 30.4 W 17 19 1005.6 - - - - - - - - -
23/02:30pm 30.6 W 15 18 1006.0 - - - - - - - - -
23/02:00pm 30.6 W 14 18 1006.3 - - - - - - - - -
23/01:30pm 30.7 W 14 17 1006.7 - - - - - - - - -
23/01:00pm 31.0 W 14 17 1006.8 - - - - - - - - -
23/12:30pm 30.6 W 15 18 1006.8 - - - - - - - - -
23/12:00pm 30.7 W 14 16 1006.8 - - - - - - - - -
23/11:30am 30.7 W 12 17 1007.2 - - - - - - - - -
23/11:00am 30.6 W 13 15 1007.7 - - - - - - - - -
23/10:30am 30.6 W 13 16 1007.9 - - - - - - - - -
23/10:00am 30.3 W 13 16 1008.0 - - - - - - - - -
23/09:30am 30.1 W 14 17 1007.9 - - - - - - - - -
23/09:00am 29.7 W 15 18 1007.9 - - - - - - - - -
23/08:30am 28.9 W 16 19 1008.1 - - - - - - - - -
23/08:00am 28.7 W 16 18 1008.0 - - - - - - - - -
23/07:30am 27.7 W 17 21 1007.7 - - - - - - - - -
23/07:00am 27.6 W 16 18 1007.5 - - - - - - - - -
23/06:30am 27.4 W 17 21 1007.2 - - - - - - - - -
23/06:00am 27.2 W 18 21 1007.1 - - - - - - - - -
23/05:30am 27.2 W 17 19 1007.2 - - - - - - - - -
23/05:00am 27.1 W 18 20 1007.2 - - - - - - - - -
23/04:30am 27.1 W 18 21 1006.9 - - - - - - - - -
23/04:00am 27.0 W 19 22 1006.9 - - - - - - - - -
23/03:00am 26.9 W 19 23 1006.7 - - - - - - - - -
23/02:30am 27.0 W 19 22 1006.9 - - - - - - - - -
23/02:00am 27.0 W 19 22 1007.0 - - - - - - - - -
23/01:30am 26.9 W 19 23 1007.2 - - - - - - - - -
23/01:00am 26.9 W 19 22 1007.3 - - - - - - - - -
23/12:30am 27.1 WNW 20 23 1007.4 - - - - - - - - -
23/12:00am 27.1 WNW 19 23 1007.6 - - - - - - - - -
 
Date/Time
WST
Temp
°C
Wind Pressure Rain since
9am
mm
Weather Cloud Vis
km
Sea
Height
m
Swell
Dir  Spd
kts
Gust
kts
hPa Trend Height
m
Period
s
Dir
22/11:30pm 27.0 WNW 20 23 1007.8 - - - - - - - - -
22/11:00pm 27.1 W 19 23 1008.2 - - - - - - - - -
22/10:30pm 27.1 WNW 20 22 1008.2 - - - - - - - - -
22/10:00pm 27.1 WNW 20 24 1008.1 - - - - - - - - -
22/09:30pm 27.3 WNW 21 24 1007.9 - - - - - - - - -
22/09:00pm 27.2 W 20 23 1007.7 - - - - - - - - -
22/08:30pm 27.4 W 19 22 1007.7 - - - - - - - - -
22/08:00pm 27.3 W 19 22 1007.2 - - - - - - - - -
22/07:30pm 27.5 W 18 22 1007.0 - - - - - - - - -
22/07:00pm 27.6 W 17 20 1006.9 - - - - - - - - -
22/06:30pm 27.9 W 18 21 1006.5 - - - - - - - - -
22/06:00pm 28.6 W 17 21 1006.1 - - - - - - - - -
22/05:30pm 29.2 W 16 19 1006.1 - - - - - - - - -
22/05:00pm 29.5 W 16 19 1006.3 - - - - - - - - -
22/04:30pm 29.9 W 16 18 1006.4 - - - - - - - - -
22/04:00pm 30.5 W 15 18 1006.5 - - - - - - - - -
22/03:30pm 30.5 W 15 17 1006.8 - - - - - - - - -
22/03:00pm 31.1 W 14 17 1006.9 - - - - - - - - -
22/02:30pm 31.3 W 14 17 1007.2 - - - - - - - - -
22/02:00pm 31.2 W 14 16 1007.3 - - - - - - - - -
22/01:30pm 31.4 W 15 17 1007.7 - - - - - - - - -
22/01:00pm 31.2 W 13 16 1007.9 - - - - - - - - -
22/12:30pm 31.2 W 13 16 1008.3 - - - - - - - - -
22/12:00pm 31.7 W 14 16 1008.3 - - - - - - - - -
22/11:30am 31.0 W 13 16 1008.5 - - - - - - - - -
22/11:00am 31.5 W 14 17 1008.8 - - - - - - - - -
22/10:30am 29.1 W 15 17 1008.9 - - - - - - - - -
22/10:00am 30.9 W 15 17 1008.9 - - - - - - - - -
22/09:30am 30.6 W 13 16 1009.0 - - - - - - - - -
22/09:00am 30.4 W 15 17 1008.9 - - - - - - - - -
22/08:30am 29.0 W 16 19 1009.1 - - - - - - - - -
22/08:00am 29.2 W 16 19 1009.0 - - - - - - - - -
22/07:30am 28.2 W 18 23 1008.8 - - - - - - - - -
22/07:00am 27.9 W 18 21 1008.6 - - - - - - - - -
22/06:30am 27.5 W 18 21 1008.5 - - - - - - - - -
22/06:00am 27.3 W 18 22 1008.1 - - - - - - - - -
22/05:30am 27.3 W 18 22 1007.8 - - - - - - - - -
22/05:00am 27.3 W 19 22 1007.6 - - - - - - - - -
22/04:30am 27.3 W 19 23 1007.7 - - - - - - - - -
22/04:00am 27.3 W 20 24 1007.5 - - - - - - - - -
22/03:00am 27.4 W 19 22 1007.3 - - - - - - - - -
22/02:30am 27.2 W 20 23 1007.4 - - - - - - - - -
22/02:00am 27.2 WNW 19 23 1007.6 - - - - - - - - -
22/01:30am 27.3 WNW 18 21 1007.6 - - - - - - - - -
22/01:00am 27.4 WNW 17 19 1007.9 - - - - - - - - -
22/12:30am 27.3 WNW 17 21 1008.1 - - - - - - - - -
22/12:00am 27.6 WNW 16 20 1008.3 - - - - - - - - -
 
Date/Time
WST
Temp
°C
Wind Pressure Rain since
9am
mm
Weather Cloud Vis
km
Sea
Height
m
Swell
Dir  Spd
kts
Gust
kts
hPa Trend Height
m
Period
s
Dir
21/11:30pm 27.4 WNW 17 20 1008.6 - - - - - - - - -
21/11:00pm 27.6 WNW 17 21 1008.8 - - - - - - - - -
21/10:30pm 27.7 WNW 16 19 1008.9 - - - - - - - - -
21/10:00pm 27.7 WNW 16 18 1008.9 - - - - - - - - -
21/09:30pm 27.6 WNW 16 19 1008.4 - - - - - - - - -
21/09:00pm 27.6 WNW 16 19 1008.1 - - - - - - - - -
21/08:30pm 27.8 WNW 18 21 1007.8 - - - - - - - - -
21/08:00pm 27.7 WNW 18 20 1007.5 - - - - - - - - -
21/07:30pm 27.8 WNW 18 20 1007.0 - - - - - - - - -

Other Formats:

Comma delimited format used in spreadsheet applications
http://www.bom.gov.au/fwo/IDW60701/IDW60701.94310.axf

JavaScript Object Notation format (JSON) in row-major order
http://www.bom.gov.au/fwo/IDW60701/IDW60701.94310.json